createdAt,value
2023-05-19T09:20:25.805Z,5.05
2023-05-19T09:22:54.037Z,6.93
2023-05-19T09:25:24.435Z,3.30
2023-05-19T09:27:55.306Z,22.23
2023-05-19T09:30:24.346Z,7.40
2023-05-19T09:32:53.298Z,8.25
2023-05-19T09:35:21.652Z,4.45
2023-05-19T09:37:51.237Z,10.52
2023-05-19T09:40:19.406Z,4.70
2023-05-19T09:42:49.123Z,11.20
2023-05-19T09:45:17.445Z,8.88
2023-05-19T09:47:45.633Z,14.13
2023-05-19T09:50:14.420Z,9.25
2023-05-19T09:52:45.439Z,4.70
2023-05-19T09:57:46.243Z,9.23
2023-05-19T10:00:18.488Z,4.43
2023-05-19T10:02:48.425Z,6.85
2023-05-19T10:05:20.249Z,7.03
2023-05-19T10:07:51.692Z,9.50
2023-05-19T10:10:21.841Z,4.78
2023-05-19T10:12:50.757Z,5.10
2023-05-19T10:15:22.190Z,4.80
2023-05-19T10:17:51.899Z,7.85
2023-05-19T10:20:20.379Z,7.90
2023-05-19T10:22:49.019Z,4.68
2023-05-19T10:25:19.830Z,7.25
2023-05-19T10:27:54.493Z,5.45
2023-05-19T10:30:27.678Z,6.47
2023-05-19T10:32:58.054Z,4.38
2023-05-19T10:35:45.314Z,5.55
2023-05-19T10:38:23.185Z,7.53
2023-05-19T10:41:02.273Z,4.55
2023-05-19T10:43:50.455Z,11.93
2023-05-19T10:46:18.933Z,5.95
2023-05-19T10:48:47.755Z,5.57
2023-05-19T10:51:16.733Z,4.70
2023-05-19T10:53:50.004Z,6.07
2023-05-19T10:56:33.904Z,4.82
2023-05-19T10:59:04.529Z,3.20
2023-05-19T11:01:34.409Z,5.53
2023-05-19T11:04:07.735Z,6.47
2023-05-19T11:06:37.896Z,4.88
2023-05-19T11:09:14.126Z,4.27
2023-05-19T11:11:50.609Z,2.40
2023-05-19T11:14:23.105Z,3.50
2023-05-19T11:16:52.712Z,4.57
2023-05-19T11:19:26.536Z,5.72
2023-05-19T11:21:56.083Z,4.45
2023-05-19T11:24:38.418Z,3.70
2023-05-19T11:27:26.035Z,5.82
2023-05-19T11:29:57.174Z,2.45
2023-05-19T11:32:29.156Z,3.35
2023-05-19T11:34:57.960Z,5.18
2023-05-19T11:37:26.520Z,3.88
2023-05-19T11:39:54.801Z,3.50
2023-05-19T11:42:23.157Z,2.58
2023-05-19T11:44:51.403Z,3.95
2023-05-19T11:47:21.601Z,4.97
2023-05-19T11:49:50.184Z,4.87
2023-05-19T11:52:18.714Z,4.88
2023-05-19T11:54:50.440Z,6.78
2023-05-19T11:57:18.977Z,5.75
2023-05-19T11:59:49.725Z,4.72
2023-05-19T12:02:21.091Z,4.93
2023-05-19T12:04:50.505Z,6.03
2023-05-19T12:07:23.485Z,3.67
2023-05-19T12:09:52.472Z,6.78
2023-05-19T12:12:21.588Z,2.80
2023-05-19T12:14:51.611Z,3.47
2023-05-19T12:17:24.066Z,3.08
2023-05-19T12:19:52.841Z,5.60
2023-05-19T12:22:21.542Z,2.40
2023-05-19T12:24:50.409Z,4.50
2023-05-19T12:27:20.750Z,4.07
2023-05-19T12:29:52.903Z,3.88
2023-05-19T12:32:25.549Z,5.18
2023-05-19T12:34:54.045Z,7.28
2023-05-19T12:37:22.352Z,6.88
2023-05-19T12:39:51.317Z,3.95
2023-05-19T12:42:19.680Z,4.72
2023-05-19T12:44:50.112Z,3.78
2023-05-19T12:47:19.962Z,5.22
2023-05-19T12:50:02.240Z,3.90
2023-05-19T12:52:32.626Z,3.78
2023-05-19T12:55:01.703Z,8.98
2023-05-19T12:57:31.787Z,6.65
2023-05-19T13:00:06.894Z,4.47
2023-05-19T13:02:36.777Z,4.47
2023-05-19T13:05:06.934Z,3.83
2023-05-19T13:07:35.832Z,6.77
2023-05-19T13:10:04.191Z,3.75
2023-05-19T13:12:32.394Z,3.25
2023-05-19T13:15:01.112Z,4.20
2023-05-19T13:17:29.331Z,6.40
2023-05-19T13:19:57.708Z,3.85
2023-05-19T13:22:27.324Z,4.13
2023-05-19T13:24:58.870Z,4.47
2023-05-19T13:27:27.301Z,4.18
2023-05-19T13:29:55.583Z,2.88
2023-05-19T13:32:24.929Z,3.13
2023-05-19T13:34:53.274Z,7.88
2023-05-19T13:37:21.600Z,3.42
2023-05-19T13:39:51.180Z,4.93
2023-05-19T13:42:19.443Z,6.05
2023-05-19T13:44:48.411Z,2.65
2023-05-19T13:47:16.842Z,2.67
2023-05-19T13:49:45.156Z,5.78
2023-05-19T13:52:13.359Z,5.93
2023-05-19T13:54:41.707Z,4.47
2023-05-19T13:57:11.983Z,5.25
2023-05-19T13:59:52.928Z,3.03
2023-05-19T14:02:29.976Z,7.13
2023-05-19T14:04:58.606Z,3.57
2023-05-19T14:07:27.237Z,3.00
2023-05-19T14:09:55.433Z,6.13
2023-05-19T14:12:33.848Z,4.97
2023-05-19T14:15:11.196Z,10.60
2023-05-19T14:17:39.929Z,4.30
2023-05-19T14:20:09.714Z,3.25
2023-05-19T14:22:37.974Z,2.70
2023-05-19T14:25:07.090Z,5.95
2023-05-19T14:27:36.674Z,11.60
2023-05-19T14:30:05.292Z,2.42
2023-05-19T14:32:33.390Z,2.45
2023-05-19T14:35:01.896Z,5.85
2023-05-19T14:37:31.789Z,3.28
2023-05-19T14:40:00.467Z,3.65
2023-05-19T14:42:28.701Z,3.05
2023-05-19T14:44:58.649Z,3.75
2023-05-19T14:47:27.493Z,3.97
2023-05-19T14:49:56.123Z,4.45
2023-05-19T14:52:24.348Z,4.03
2023-05-19T14:54:52.559Z,8.55
2023-05-19T14:57:20.779Z,4.55
2023-05-19T14:59:49.095Z,5.72
2023-05-19T15:02:18.719Z,5.47
2023-05-19T15:04:47.057Z,4.15
2023-05-19T15:07:15.244Z,6.03
2023-05-19T15:09:43.445Z,5.30
2023-05-19T15:12:11.698Z,3.88
2023-05-19T15:14:40.041Z,7.50
2023-05-19T15:17:08.386Z,8.63
2023-05-19T15:19:37.948Z,5.75
2023-05-19T15:22:06.505Z,3.78
2023-05-19T15:24:34.820Z,4.63
2023-05-19T15:27:03.367Z,5.95
2023-05-19T15:29:31.660Z,3.53
2023-05-19T15:31:59.899Z,3.10
2023-05-19T15:34:28.106Z,4.78
2023-05-19T15:36:57.720Z,6.47
2023-05-19T15:39:26.121Z,7.07
2023-05-19T15:41:54.402Z,3.70
2023-05-19T15:44:22.637Z,3.53
2023-05-19T15:46:50.906Z,3.72
2023-05-19T15:49:19.167Z,3.80
2023-05-19T15:51:47.662Z,7.82
2023-05-19T15:54:17.373Z,4.55
2023-05-19T15:56:45.523Z,4.22
2023-05-19T15:59:13.678Z,4.10
2023-05-19T16:01:41.905Z,4.03
2023-05-19T16:04:10.260Z,3.28
2023-05-19T16:06:38.616Z,6.28
2023-05-19T16:09:06.819Z,5.43
2023-05-19T16:11:36.404Z,2.90
2023-05-19T16:14:04.589Z,2.90
2023-05-19T16:16:32.864Z,4.05
2023-05-19T16:19:01.139Z,5.32
2023-05-19T16:21:29.342Z,4.63
2023-05-19T16:23:57.740Z,3.42
2023-05-19T16:26:26.424Z,4.50
2023-05-19T16:28:56.070Z,5.68
2023-05-19T16:31:24.414Z,5.72
2023-05-19T16:33:52.588Z,4.78
2023-05-19T16:36:22.830Z,4.25
2023-05-19T16:38:51.601Z,6.45
2023-05-19T16:41:19.941Z,4.10
2023-05-19T16:43:48.177Z,4.07
2023-05-19T16:46:17.860Z,4.75
2023-05-19T16:48:46.120Z,3.88
2023-05-19T16:51:14.297Z,57.60
2023-05-19T16:53:42.570Z,66.07
2023-05-19T16:56:11.107Z,28.20
2023-05-19T16:58:39.405Z,11.13
2023-05-19T17:01:07.583Z,9.02
2023-05-19T17:03:37.437Z,11.38
2023-05-19T17:06:06.004Z,8.65
2023-05-19T17:08:34.219Z,11.05
2023-05-19T17:11:02.489Z,12.38
2023-05-19T17:13:33.724Z,17.50
2023-05-19T17:16:02.124Z,18.67
2023-05-19T17:18:31.287Z,14.48
2023-05-19T17:21:03.922Z,11.48
2023-05-19T17:23:32.337Z,10.88
2023-05-19T17:26:00.494Z,15.70
2023-05-19T17:28:28.866Z,11.60
2023-05-19T17:30:57.097Z,13.27
2023-05-19T17:33:25.280Z,14.63
2023-05-19T17:35:53.510Z,18.25
2023-05-19T17:38:23.248Z,12.77
2023-05-19T17:40:53.519Z,12.73
2023-05-19T17:43:21.690Z,17.57
2023-05-19T17:45:50.076Z,13.25
2023-05-19T17:48:18.304Z,18.38
2023-05-19T17:50:47.990Z,13.32
2023-05-19T17:53:16.781Z,12.48
2023-05-19T17:55:51.606Z,12.82
2023-05-19T17:58:20.809Z,13.60
2023-05-19T18:00:49.377Z,12.25
2023-05-19T18:03:18.173Z,15.07
2023-05-19T18:05:46.926Z,13.40
2023-05-19T18:08:16.585Z,11.07
2023-05-19T18:10:48.599Z,9.40
2023-05-19T18:13:16.915Z,11.88
2023-05-19T18:15:45.151Z,11.77
2023-05-19T18:18:13.403Z,12.30
2023-05-19T18:20:44.791Z,14.20
2023-05-19T18:23:13.702Z,11.77
2023-05-19T18:25:41.948Z,13.15
2023-05-19T18:28:11.603Z,8.10
2023-05-19T18:30:39.854Z,10.50
2023-05-19T18:33:08.177Z,6.60
2023-05-19T18:35:37.192Z,11.35
2023-05-19T18:38:05.452Z,12.07
2023-05-19T18:40:34.047Z,11.63
2023-05-19T18:43:02.477Z,8.20
2023-05-19T18:45:32.149Z,10.10
2023-05-19T18:48:00.443Z,8.60
2023-05-19T18:50:28.820Z,8.13
2023-05-19T18:52:57.057Z,8.95
2023-05-19T18:55:25.472Z,9.60
2023-05-19T18:57:54.203Z,8.18
2023-05-19T19:00:22.821Z,9.40
2023-05-19T19:02:53.369Z,8.88
2023-05-19T19:05:22.167Z,9.15
2023-05-19T19:07:50.556Z,7.13
2023-05-19T19:10:19.084Z,10.35
2023-05-19T19:12:49.133Z,9.25
2023-05-19T19:15:19.265Z,7.60
2023-05-19T19:17:48.389Z,6.83
2023-05-19T19:20:19.680Z,7.47
2023-05-19T19:22:47.956Z,5.78
2023-05-19T19:25:17.281Z,7.20
2023-05-19T19:27:46.293Z,7.72
2023-05-19T19:30:15.600Z,9.70
2023-05-19T19:32:43.785Z,9.60
2023-05-19T19:35:12.426Z,9.15
2023-05-19T19:37:42.157Z,6.88
2023-05-19T19:40:11.328Z,9.60
2023-05-19T19:42:39.973Z,10.50
2023-05-19T19:45:09.495Z,9.15
2023-05-19T19:47:38.440Z,10.02
2023-05-19T19:50:07.904Z,5.90
2023-05-19T19:52:36.121Z,6.93
2023-05-19T19:55:06.633Z,7.10
2023-05-19T19:57:35.728Z,6.03
2023-05-19T20:00:08.212Z,8.02
2023-05-19T20:02:41.039Z,6.50
2023-05-19T20:05:15.210Z,7.65
2023-05-19T20:07:43.423Z,8.07
2023-05-19T20:10:14.145Z,6.03
2023-05-19T20:12:42.336Z,8.40
2023-05-19T20:15:11.937Z,9.88
2023-05-19T20:17:40.437Z,8.05
2023-05-19T20:20:10.848Z,6.13
2023-05-19T20:22:40.828Z,7.35
2023-05-19T20:25:10.057Z,7.35
2023-05-19T20:27:39.711Z,5.75
2023-05-19T20:30:09.466Z,4.40
2023-05-19T20:32:38.999Z,7.13
2023-05-19T20:35:08.732Z,8.57
2023-05-19T20:37:37.057Z,5.45
2023-05-19T20:40:06.341Z,6.15
2023-05-19T20:42:34.454Z,6.97
2023-05-19T20:45:04.080Z,7.30
2023-05-19T20:47:32.295Z,6.70
2023-05-19T20:50:00.613Z,7.50
2023-05-19T20:52:29.024Z,5.95
2023-05-19T20:54:57.200Z,6.07
2023-05-19T20:57:27.693Z,6.15
2023-05-19T20:59:57.082Z,5.78
2023-05-19T21:02:26.839Z,7.03
2023-05-19T21:04:55.192Z,7.70
2023-05-19T21:07:23.478Z,4.93
2023-05-19T21:09:52.358Z,4.32
2023-05-19T21:12:23.870Z,5.40
2023-05-19T21:14:52.108Z,6.72
2023-05-19T21:17:21.145Z,5.95
2023-05-19T21:19:52.765Z,5.80
2023-05-19T21:22:21.018Z,5.47
2023-05-19T21:24:49.222Z,5.40
2023-05-19T21:27:17.448Z,5.60
2023-05-19T21:29:45.911Z,6.65
2023-05-19T21:32:14.237Z,5.30
2023-05-19T21:34:42.492Z,5.65
2023-05-19T21:37:12.194Z,6.22
2023-05-19T21:39:40.511Z,5.80
2023-05-19T21:42:08.811Z,4.72
2023-05-19T21:44:37.011Z,6.22
2023-05-19T21:47:05.419Z,4.70
2023-05-19T21:49:33.633Z,6.53
2023-05-19T21:52:02.067Z,6.07
2023-05-19T21:54:31.706Z,5.47
2023-05-19T21:57:00.030Z,6.13
2023-05-19T21:59:28.428Z,5.88
2023-05-19T22:01:56.767Z,5.38
2023-05-19T22:04:25.028Z,4.60
2023-05-19T22:06:53.332Z,6.20
2023-05-19T22:09:21.756Z,4.18
2023-05-19T22:11:52.236Z,4.22
2023-05-19T22:14:20.534Z,5.60
2023-05-19T22:16:48.864Z,4.88
2023-05-19T22:19:17.222Z,4.88
2023-05-19T22:21:45.540Z,5.10
2023-05-19T22:24:13.749Z,6.80
2023-05-19T22:26:43.151Z,5.72
2023-05-19T22:29:15.224Z,3.83
2023-05-19T22:31:43.669Z,5.07
2023-05-19T22:34:14.544Z,5.18
2023-05-19T22:36:44.256Z,5.13
2023-05-19T22:39:12.785Z,5.57
2023-05-19T22:41:42.120Z,5.50
2023-05-19T22:44:11.423Z,4.40
2023-05-19T22:46:41.121Z,7.45
2023-05-19T22:49:09.417Z,4.28
2023-05-19T22:51:37.912Z,7.80
2023-05-19T22:54:07.196Z,4.38
2023-05-19T22:56:35.474Z,4.45
2023-05-19T22:59:03.757Z,4.35
2023-05-19T23:01:32.105Z,5.15
2023-05-19T23:04:01.829Z,5.72
2023-05-19T23:06:30.347Z,4.10
2023-05-19T23:09:03.330Z,5.53
2023-05-19T23:11:31.632Z,4.18
2023-05-19T23:14:00.016Z,4.32
2023-05-19T23:16:28.383Z,5.32
2023-05-19T23:18:56.618Z,5.18
2023-05-19T23:21:26.452Z,4.20
2023-05-19T23:23:55.857Z,4.95
2023-05-19T23:26:24.313Z,5.80
2023-05-19T23:28:52.483Z,4.97
2023-05-19T23:31:20.821Z,4.68
2023-05-19T23:33:49.144Z,5.13
2023-05-19T23:36:17.781Z,5.60
2023-05-19T23:38:47.349Z,4.68
2023-05-19T23:41:15.705Z,4.97
2023-05-19T23:43:43.938Z,5.35
2023-05-19T23:46:12.375Z,5.68
2023-05-19T23:48:40.752Z,5.30
2023-05-19T23:51:09.040Z,4.55
2023-05-19T23:53:37.410Z,4.57
2023-05-19T23:56:07.805Z,4.40
2023-05-19T23:58:35.978Z,4.68
